Time;durP1;ratioP1;P1;durP2;ratioP2;P2;SDS_P1;SDS_P2;PMS_P1;PMS_P2;Temp;Humidity;BMP_temperature;BMP_pressure;BME280_temperature;BME280_humidity;BME280_pressure;Samples;Min_cycle;Max_cycle;Signal;HPM_P1;HPM_P2
2021/07/15 00:01:51;;;;;;;0.57;0.50;;;;;;;17.09;81.46;96264.88;5104668;28;20187;-64
2021/07/15 00:04:17;;;;;;;0.50;0.50;;;;;;;17.22;80.86;96260.78;5098362;28;20191;-64
2021/07/15 00:06:42;;;;;;;0.47;0.47;;;;;;;17.09;81.30;96259.59;5106006;28;20267;-64
2021/07/15 00:09:11;;;;;;;0.40;0.40;;;;;;;16.96;82.60;96258.38;5106437;28;20177;-64
2021/07/15 00:11:39;;;;;;;0.57;0.57;;;;;;;16.96;84.20;96254.94;5113710;28;20191;-64
2021/07/15 00:14:05;;;;;;;0.50;0.50;;;;;;;16.78;86.75;96259.06;5101276;28;20232;-64
2021/07/15 00:16:30;;;;;;;1.20;0.60;;;;;;;16.69;88.15;96260.75;5110720;28;20200;-65
2021/07/15 00:18:56;;;;;;;0.60;0.60;;;;;;;16.35;91.66;96254.63;5106666;28;20181;-64
2021/07/15 00:21:24;;;;;;;0.70;0.70;;;;;;;16.29;93.22;96251.25;5098292;28;20176;-70
2021/07/15 00:23:50;;;;;;;0.70;0.70;;;;;;;16.35;93.04;96252.78;5099767;28;20177;-65
2021/07/15 00:26:17;;;;;;;0.80;0.80;;;;;;;16.25;94.49;96249.44;5113718;28;20184;-65
2021/07/15 00:28:43;;;;;;;0.70;0.70;;;;;;;16.18;95.97;96250.53;5105428;28;20203;-65
2021/07/15 00:31:09;;;;;;;0.70;0.70;;;;;;;16.11;96.90;96252.69;5101790;28;20589;-65
2021/07/15 00:33:35;;;;;;;0.70;0.70;;;;;;;16.28;95.31;96246.22;5098979;28;20188;-64
2021/07/15 00:36:03;;;;;;;0.70;0.70;;;;;;;16.08;97.39;96242.66;5097018;28;20193;-65
2021/07/15 00:38:28;;;;;;;0.63;0.63;;;;;;;15.99;98.54;96240.88;5103810;28;20176;-64
2021/07/15 00:40:54;;;;;;;0.70;0.70;;;;;;;16.01;98.39;96238.72;5096420;28;20293;-64
2021/07/15 00:43:19;;;;;;;1.67;0.70;;;;;;;16.01;98.26;96241.38;5111725;28;20581;-64
2021/07/15 00:45:45;;;;;;;0.70;0.70;;;;;;;15.83;99.76;96234.88;5115559;28;20202;-65
2021/07/15 00:48:12;;;;;;;3.40;0.70;;;;;;;15.95;99.64;96227.41;5102086;28;20301;-64
2021/07/15 00:50:38;;;;;;;0.80;0.70;;;;;;;15.80;99.95;96224.84;5108943;28;20709;-64
2021/07/15 00:53:05;;;;;;;0.70;0.70;;;;;;;15.66;100.00;96223.88;5106937;28;20176;-64
2021/07/15 00:55:34;;;;;;;0.70;0.70;;;;;;;15.82;100.00;96227.22;5112632;28;20211;-65
2021/07/15 00:58:00;;;;;;;0.60;0.60;;;;;;;15.68;100.00;96227.03;5114810;28;20192;-66
2021/07/15 01:00:27;;;;;;;0.67;0.67;;;;;;;15.62;100.00;96217.53;5104662;28;20671;-67
2021/07/15 01:02:53;;;;;;;0.73;0.73;;;;;;;15.66;100.00;96215.97;5099532;28;20175;-66
2021/07/15 01:05:25;;;;;;;1.40;0.80;;;;;;;15.69;100.00;96225.97;5104247;28;20211;-65
2021/07/15 01:07:50;;;;;;;0.70;0.70;;;;;;;15.67;100.00;96220.16;5114302;28;20190;-66
2021/07/15 01:10:20;;;;;;;0.67;0.67;;;;;;;15.66;100.00;96224.66;5102621;28;20600;-66
2021/07/15 01:13:19;;;;;;;0.67;0.67;;;;;;;15.68;100.00;96224.38;5106645;28;20196;-66
2021/07/15 01:15:50;;;;;;;0.60;0.60;;;;;;;15.62;100.00;96223.63;5094386;28;20462;-66
2021/07/15 01:18:41;;;;;;;0.80;0.80;;;;;;;15.69;100.00;96224.13;5094994;28;20258;-64
2021/07/15 01:21:35;;;;;;;0.90;0.90;;;;;;;15.49;100.00;96224.16;5095681;28;20181;-65
2021/07/15 01:24:25;;;;;;;0.90;0.80;;;;;;;15.70;100.00;96223.06;5093551;28;20184;-65
2021/07/15 01:27:12;;;;;;;0.70;0.70;;;;;;;15.60;100.00;96217.84;5103910;28;20254;-64
2021/07/15 01:30:00;;;;;;;0.80;0.80;;;;;;;15.64;100.00;96221.50;5097248;28;20199;-65
2021/07/15 01:32:30;;;;;;;0.70;0.70;;;;;;;15.57;100.00;96213.09;5095787;28;20193;-68
2021/07/15 01:35:01;;;;;;;0.80;0.80;;;;;;;15.51;100.00;96210.69;5104269;28;20574;-65
2021/07/15 01:37:29;;;;;;;0.80;0.80;;;;;;;15.53;100.00;96204.13;5099138;28;20204;-65
2021/07/15 01:39:56;;;;;;;0.80;0.80;;;;;;;15.43;100.00;96196.22;5080873;28;20225;-65
2021/07/15 01:42:22;;;;;;;0.80;0.80;;;;;;;15.38;100.00;96196.22;5058944;28;20190;-72
2021/07/15 01:44:48;;;;;;;0.80;0.80;;;;;;;15.43;100.00;96206.00;5057655;28;20185;-65
2021/07/15 01:47:14;;;;;;;1.00;1.00;;;;;;;15.40;100.00;96202.84;5073465;28;20181;-66
2021/07/15 01:49:43;;;;;;;0.90;0.90;;;;;;;15.28;100.00;96199.72;5056595;28;20216;-67
2021/07/15 01:52:10;;;;;;;0.83;0.83;;;;;;;15.20;100.00;96196.84;5045844;28;20269;-65
2021/07/15 01:54:35;;;;;;;3.10;0.83;;;;;;;15.33;100.00;96204.16;5072109;28;20348;-65
2021/07/15 01:57:03;;;;;;;2.73;0.90;;;;;;;15.22;100.00;96200.00;5071807;28;20219;-65
2021/07/15 01:59:32;;;;;;;0.70;0.70;;;;;;;15.13;100.00;96206.91;5062124;28;20188;-65
2021/07/15 02:01:58;;;;;;;0.73;0.70;;;;;;;15.19;100.00;96208.47;5056715;28;20186;-65
2021/07/15 02:04:24;;;;;;;2.03;0.77;;;;;;;15.35;100.00;96209.97;5072185;28;20235;-72
2021/07/15 02:06:53;;;;;;;1.23;0.80;;;;;;;15.37;100.00;96208.66;5072274;28;20298;-66
2021/07/15 02:09:19;;;;;;;0.70;0.70;;;;;;;15.51;100.00;96214.13;5067448;28;20228;-66
2021/07/15 02:11:48;;;;;;;0.60;0.60;;;;;;;15.43;100.00;96213.94;5068872;28;20479;-66
2021/07/15 02:14:15;;;;;;;0.60;0.60;;;;;;;15.35;100.00;96205.50;5061398;28;20190;-72
2021/07/15 02:16:43;;;;;;;1.80;0.63;;;;;;;15.36;100.00;96203.66;5060126;28;20693;-64
2021/07/15 02:19:09;;;;;;;0.53;0.53;;;;;;;15.25;100.00;96192.34;5064658;28;20208;-64
2021/07/15 02:21:36;;;;;;;0.53;0.53;;;;;;;15.11;100.00;96190.53;5056686;28;20228;-66
2021/07/15 02:24:05;;;;;;;0.60;0.60;;;;;;;15.23;100.00;96197.09;5063021;28;20200;-65
2021/07/15 02:26:32;;;;;;;0.50;0.50;;;;;;;15.10;100.00;96191.63;5065423;28;20190;-66
2021/07/15 02:28:58;;;;;;;0.60;0.60;;;;;;;15.03;100.00;96197.16;5059421;28;20178;-66
2021/07/15 02:31:39;;;;;;;0.70;0.70;;;;;;;15.04;100.00;96206.69;5056163;28;20185;-72
2021/07/15 02:34:09;;;;;;;0.70;0.70;;;;;;;15.12;100.00;96207.94;5063943;28;20185;-65
2021/07/15 02:36:37;;;;;;;0.67;0.67;;;;;;;15.24;100.00;96206.59;5062181;28;20205;-65
2021/07/15 02:39:05;;;;;;;0.60;0.60;;;;;;;15.29;100.00;96208.41;5064733;28;20182;-65
2021/07/15 02:41:30;;;;;;;1.90;1.13;;;;;;;15.34;100.00;96209.19;5100016;28;20259;-65
2021/07/15 02:43:56;;;;;;;0.60;0.60;;;;;;;15.38;100.00;96217.34;5095009;28;20267;-64
2021/07/15 02:46:21;;;;;;;0.77;0.77;;;;;;;15.29;100.00;96216.34;5104446;28;20624;-66
2021/07/15 02:48:47;;;;;;;0.60;0.60;;;;;;;15.46;100.00;96216.81;5103326;28;20188;-66
2021/07/15 02:51:12;;;;;;;0.70;0.70;;;;;;;15.54;100.00;96224.22;5104096;28;20226;-65
2021/07/15 02:53:39;;;;;;;0.70;0.70;;;;;;;15.62;99.68;96223.63;5093058;28;20200;-66
2021/07/15 02:56:21;;;;;;;0.70;0.70;;;;;;;15.59;99.95;96221.53;5094248;28;20200;-65
2021/07/15 02:59:11;;;;;;;0.67;0.53;;;;;;;15.62;100.00;96222.81;5101628;28;20242;-65
2021/07/15 03:01:47;;;;;;;1.73;0.63;;;;;;;15.58;99.68;96221.81;5093085;28;20586;-65
2021/07/15 03:04:23;;;;;;;0.60;0.60;;;;;;;15.51;100.00;96218.63;5105163;28;20203;-66
2021/07/15 03:06:49;;;;;;;0.67;0.67;;;;;;;15.56;100.00;96218.63;5093105;28;20490;-66
2021/07/15 03:09:23;;;;;;;1.47;0.60;;;;;;;15.66;100.00;96226.53;5094456;28;20630;-64
2021/07/15 03:11:59;;;;;;;0.50;0.50;;;;;;;15.65;100.00;96219.66;5107526;28;20187;-65
2021/07/15 03:14:28;;;;;;;1.33;0.60;;;;;;;15.62;100.00;96222.81;5083909;28;20176;-72
2021/07/15 03:16:55;;;;;;;0.77;0.70;;;;;;;15.59;100.00;96226.81;5102297;28;20200;-66
2021/07/15 03:19:22;;;;;;;0.70;0.70;;;;;;;15.78;99.55;96219.03;5100376;28;20589;-65
2021/07/15 03:21:48;;;;;;;0.73;0.73;;;;;;;15.83;99.03;96218.25;5092512;28;20184;-66
2021/07/15 03:24:17;;;;;;;0.87;0.60;;;;;;;15.84;98.68;96222.44;5090919;28;20184;-69
2021/07/15 03:26:45;;;;;;;0.50;0.50;;;;;;;15.87;98.86;96224.56;5099767;28;20191;-66
2021/07/15 03:29:12;;;;;;;0.70;0.70;;;;;;;15.87;98.91;96228.00;5087596;28;20185;-66
2021/07/15 03:31:38;;;;;;;0.77;0.60;;;;;;;15.88;98.67;96239.34;5106831;28;20245;-66
2021/07/15 03:34:04;;;;;;;0.57;0.57;;;;;;;15.89;98.55;96241.72;5095107;28;20241;-66
2021/07/15 03:36:32;;;;;;;0.50;0.50;;;;;;;15.96;98.09;96233.47;5104303;28;20603;-72
2021/07/15 03:38:58;;;;;;;0.60;0.60;;;;;;;15.86;98.70;96228.25;5092677;28;20180;-67
2021/07/15 03:41:24;;;;;;;2.63;0.70;;;;;;;15.88;98.45;96234.06;5105482;28;20263;-67
2021/07/15 03:43:50;;;;;;;0.60;0.60;;;;;;;15.90;98.25;96232.72;5101613;28;20198;-66
2021/07/15 03:46:17;;;;;;;1.37;0.63;;;;;;;15.91;98.30;96236.94;5095838;28;20184;-67
2021/07/15 03:48:44;;;;;;;0.80;0.80;;;;;;;15.79;99.20;96225.91;5102878;28;20189;-66
2021/07/15 03:51:10;;;;;;;0.60;0.60;;;;;;;15.75;99.56;96235.47;5103381;28;20649;-66
2021/07/15 03:53:41;;;;;;;0.70;0.70;;;;;;;15.87;99.25;96237.78;5095501;28;20199;-66
2021/07/15 03:56:12;;;;;;;0.50;0.50;;;;;;;15.96;98.52;96238.75;5092855;28;20204;-70
2021/07/15 03:58:41;;;;;;;0.90;0.83;;;;;;;15.98;98.52;96234.81;5098250;28;20273;-67
2021/07/15 04:01:08;;;;;;;0.70;0.70;;;;;;;15.94;98.59;96238.28;5100244;28;20183;-66
2021/07/15 04:03:35;;;;;;;0.60;0.60;;;;;;;15.93;99.12;96242.75;5106017;28;20590;-67
2021/07/15 04:06:03;;;;;;;0.63;0.63;;;;;;;16.03;98.97;96253.28;5094355;28;20257;-66
2021/07/15 04:08:29;;;;;;;0.80;0.80;;;;;;;16.10;98.43;96251.13;5110978;28;20188;-73
2021/07/15 04:10:56;;;;;;;0.80;0.80;;;;;;;16.12;97.75;96256.13;5102039;28;20264;-67
2021/07/15 04:13:25;;;;;;;0.63;0.63;;;;;;;16.17;97.58;96256.88;5097886;28;20184;-64
2021/07/15 04:16:11;;;;;;;0.70;0.70;;;;;;;16.21;97.88;96250.00;5091373;28;21122;-64
2021/07/15 04:18:39;;;;;;;0.70;0.70;;;;;;;16.21;97.42;96255.28;5103545;28;20184;-67
2021/07/15 04:21:06;;;;;;;1.13;0.90;;;;;;;16.32;96.79;96250.69;5099376;28;20185;-66
2021/07/15 04:23:33;;;;;;;0.60;0.60;;;;;;;16.25;97.00;96254.72;5103152;28;20184;-67
2021/07/15 04:26:00;;;;;;;0.60;0.60;;;;;;;16.41;96.12;96250.88;5107649;28;20176;-63
2021/07/15 04:28:25;;;;;;;0.63;0.60;;;;;;;16.38;96.02;96251.47;5093100;28;20267;-63
2021/07/15 04:30:59;;;;;;;0.63;0.63;;;;;;;16.39;96.46;96248.50;5107709;28;20681;-67
2021/07/15 04:33:25;;;;;;;0.60;0.60;;;;;;;16.41;96.04;96251.69;5100053;28;20585;-66
2021/07/15 04:35:56;;;;;;;0.60;0.60;;;;;;;16.45;95.75;96254.56;5096894;28;20695;-64
2021/07/15 04:38:22;;;;;;;0.87;0.60;;;;;;;16.36;96.30;96262.31;5093434;28;20184;-64
2021/07/15 04:40:48;;;;;;;0.60;0.60;;;;;;;16.48;95.91;96264.59;5090927;28;20227;-65
2021/07/15 04:43:14;;;;;;;0.60;0.60;;;;;;;16.48;96.01;96260.09;5091992;28;20188;-63
2021/07/15 04:45:41;;;;;;;0.60;0.60;;;;;;;16.38;96.93;96259.41;5092283;28;20211;-66
2021/07/15 04:48:08;;;;;;;0.70;0.70;;;;;;;16.44;96.31;96255.66;5110710;28;20187;-64
2021/07/15 04:50:35;;;;;;;2.17;0.70;;;;;;;16.46;96.83;96251.66;5092872;28;20193;-64
2021/07/15 04:53:07;;;;;;;0.60;0.60;;;;;;;16.42;97.70;96240.03;5111713;28;20184;-63
2021/07/15 04:55:34;;;;;;;0.83;0.63;;;;;;;16.53;96.67;96235.47;5101197;28;20507;-64
2021/07/15 04:58:03;;;;;;;0.50;0.50;;;;;;;16.46;97.01;96243.72;5104534;28;20181;-63
2021/07/15 05:00:29;;;;;;;0.57;0.57;;;;;;;16.42;96.91;96239.25;5109557;28;20658;-71
2021/07/15 05:03:00;;;;;;;0.80;0.80;;;;;;;16.32;97.10;96226.91;5097788;28;20192;-64
2021/07/15 05:05:25;;;;;;;0.70;0.70;;;;;;;16.22;98.08;96221.66;5096342;28;20594;-63
2021/07/15 05:07:50;;;;;;;0.80;0.80;;;;;;;16.22;97.54;96232.25;5113358;28;20233;-65
2021/07/15 05:10:16;;;;;;;0.80;0.80;;;;;;;16.26;98.64;96233.28;5113439;28;20692;-66
2021/07/15 05:12:41;;;;;;;0.90;0.90;;;;;;;16.50;98.11;96233.34;5097455;28;20615;-66
2021/07/15 05:15:09;;;;;;;1.00;0.90;;;;;;;16.71;95.56;96224.22;5113944;28;20176;-64
2021/07/15 05:17:36;;;;;;;0.70;0.70;;;;;;;16.81;94.98;96231.28;5106443;28;20284;-64
2021/07/15 05:20:06;;;;;;;6.60;1.20;;;;;;;16.58;97.49;96235.41;5101314;28;20766;-64
2021/07/15 05:22:32;;;;;;;0.70;0.70;;;;;;;16.86;96.05;96231.22;5102273;28;20184;-71
2021/07/15 05:24:58;;;;;;;0.80;0.80;;;;;;;17.01;94.64;96241.66;5094099;28;20181;-64
2021/07/15 05:27:23;;;;;;;0.70;0.70;;;;;;;17.08;93.84;96238.69;5109136;28;20577;-63
2021/07/15 05:29:49;;;;;;;1.60;0.90;;;;;;;16.96;95.24;96245.16;5101705;28;20661;-64
2021/07/15 05:32:14;;;;;;;0.50;0.50;;;;;;;17.14;94.61;96242.84;5099527;28;20188;-63
2021/07/15 05:34:39;;;;;;;2.00;0.80;;;;;;;17.36;92.87;96238.63;5109833;28;20504;-64
2021/07/15 05:37:05;;;;;;;0.70;0.70;;;;;;;17.45;91.36;96252.03;5112948;28;20198;-64
2021/07/15 05:39:31;;;;;;;0.60;0.60;;;;;;;17.47;91.31;96236.66;5113637;28;20232;-67
2021/07/15 05:41:56;;;;;;;0.60;0.60;;;;;;;17.53;90.16;96246.13;5110047;28;20233;-63
2021/07/15 05:44:22;;;;;;;0.97;0.70;;;;;;;17.56;90.14;96242.88;5100455;28;20575;-64
2021/07/15 05:46:47;;;;;;;0.70;0.70;;;;;;;17.59;89.76;96233.59;5094176;28;20177;-65
2021/07/15 05:49:12;;;;;;;0.60;0.60;;;;;;;17.75;88.83;96243.75;5110017;28;20532;-64
2021/07/15 05:51:38;;;;;;;1.40;0.73;;;;;;;17.78;89.01;96248.47;5098178;28;20185;-66
2021/07/15 05:54:03;;;;;;;1.20;0.70;;;;;;;17.94;87.82;96253.59;5108575;28;20541;-65
2021/07/15 05:56:29;;;;;;;1.30;0.80;;;;;;;17.91;88.65;96246.19;5111249;28;20199;-65
2021/07/15 05:58:54;;;;;;;1.40;1.30;;;;;;;17.86;88.61;96245.19;5093919;28;20476;-64
2021/07/15 06:01:19;;;;;;;0.70;0.70;;;;;;;18.04;87.07;96258.75;5106438;28;20177;-64
2021/07/15 06:03:46;;;;;;;0.80;0.80;;;;;;;18.09;86.55;96256.81;5094282;28;20279;-64
2021/07/15 06:06:11;;;;;;;0.97;0.70;;;;;;;18.28;85.85;96257.56;5087935;28;20222;-63
2021/07/15 06:08:37;;;;;;;1.27;0.67;;;;;;;18.43;84.86;96267.19;5108766;28;20935;-63
2021/07/15 06:11:03;;;;;;;0.60;0.60;;;;;;;18.43;83.25;96269.84;5095889;28;20195;-63
2021/07/15 06:13:28;;;;;;;1.10;0.70;;;;;;;18.46;83.82;96265.81;5102500;28;20665;-62
2021/07/15 06:15:54;;;;;;;0.60;0.60;;;;;;;18.48;83.05;96266.31;5099177;28;20195;-63
2021/07/15 06:18:19;;;;;;;1.90;0.60;;;;;;;18.69;81.88;96278.22;5091642;28;20181;-63
2021/07/15 06:20:45;;;;;;;4.53;0.93;;;;;;;18.68;81.61;96295.22;5090909;28;20233;-63
2021/07/15 06:23:10;;;;;;;0.80;0.70;;;;;;;18.60;82.12;96299.34;5100443;28;20189;-63
2021/07/15 06:25:35;;;;;;;0.60;0.60;;;;;;;18.61;82.53;96295.59;5102343;28;20188;-66
2021/07/15 06:28:01;;;;;;;1.43;0.60;;;;;;;18.73;81.12;96294.34;5110179;28;20190;-63
2021/07/15 06:30:26;;;;;;;0.60;0.60;;;;;;;18.90;80.15;96291.94;5099334;28;20187;-63
2021/07/15 06:32:52;;;;;;;1.25;0.60;;;;;;;19.21;79.84;96282.38;5102567;28;20204;-63
2021/07/15 06:35:21;;;;;;;1.70;0.70;;;;;;;19.44;78.45;96275.31;5095392;28;20652;-65
2021/07/15 06:37:51;;;;;;;0.45;0.40;;;;;;;19.60;77.72;96281.94;5093508;28;20257;-64
2021/07/15 06:40:18;;;;;;;0.63;0.50;;;;;;;19.71;77.67;96283.31;5091177;28;20243;-63
2021/07/15 06:42:44;;;;;;;2.47;0.63;;;;;;;19.89;76.52;96276.31;5093897;28;20187;-64
2021/07/15 06:45:10;;;;;;;0.40;0.40;;;;;;;20.02;75.47;96275.47;5093530;28;20185;-63
2021/07/15 06:47:36;;;;;;;0.85;0.73;;;;;;;20.13;74.30;96290.13;5100612;28;20200;-68
2021/07/15 06:50:04;;;;;;;3.05;0.90;;;;;;;20.38;73.70;96299.47;5103034;28;20240;-63
2021/07/15 06:52:30;;;;;;;0.63;0.50;;;;;;;20.58;72.27;96295.56;5103741;28;20184;-63
2021/07/15 06:54:57;;;;;;;0.40;0.40;;;;;;;21.00;70.79;96297.75;5099497;28;20182;-63
2021/07/15 06:57:23;;;;;;;0.47;0.47;;;;;;;21.11;68.92;96295.59;5092961;28;20204;-63
2021/07/15 06:59:48;;;;;;;0.60;0.60;;;;;;;21.05;69.74;96297.59;5095270;28;20196;-64
2021/07/15 07:02:14;;;;;;;0.52;0.50;;;;;;;21.24;69.68;96296.63;5100223;28;20208;-65
2021/07/15 07:04:39;;;;;;;0.47;0.47;;;;;;;21.25;69.32;96291.00;5098872;28;20188;-64
2021/07/15 07:07:05;;;;;;;0.30;0.30;;;;;;;21.02;69.39;96286.75;5100173;28;20188;-65
2021/07/15 07:09:30;;;;;;;0.40;0.40;;;;;;;21.08;69.10;96294.31;5087663;28;20189;-64
2021/07/15 07:11:56;;;;;;;0.55;0.50;;;;;;;20.98;68.76;96288.47;5092871;28;20195;-63
2021/07/15 07:14:21;;;;;;;2.35;0.55;;;;;;;20.93;69.50;96289.38;5098219;28;20176;-63
2021/07/15 07:16:47;;;;;;;1.10;0.52;;;;;;;20.98;68.92;96286.59;5094169;28;20716;-63
2021/07/15 07:19:12;;;;;;;0.60;0.60;;;;;;;21.23;68.71;96282.53;5095377;28;20192;-64
2021/07/15 07:21:37;;;;;;;3.15;1.23;;;;;;;21.36;67.47;96273.63;5103283;28;20183;-68
2021/07/15 07:24:03;;;;;;;0.60;0.60;;;;;;;21.71;66.33;96271.88;5106179;28;20593;-64
2021/07/15 07:26:28;;;;;;;0.50;0.50;;;;;;;22.27;63.92;96272.94;5097344;28;20263;-63
2021/07/15 07:28:54;;;;;;;2.10;0.90;;;;;;;22.73;62.97;96272.34;5101817;28;20368;-64
2021/07/15 07:31:19;;;;;;;0.65;0.65;;;;;;;23.01;61.34;96278.09;5101469;28;20258;-63
2021/07/15 07:33:45;;;;;;;0.65;0.60;;;;;;;23.21;59.74;96282.75;5102805;28;20241;-64
2021/07/15 07:36:11;;;;;;;0.40;0.40;;;;;;;23.44;58.26;96284.09;5110177;28;20640;-63
2021/07/15 07:38:36;;;;;;;0.77;0.60;;;;;;;23.54;58.41;96277.63;5110309;28;20188;-69
2021/07/15 07:41:02;;;;;;;0.73;0.73;;;;;;;23.26;59.15;96281.78;5108313;28;20231;-63
2021/07/15 07:43:27;;;;;;;0.45;0.43;;;;;;;22.72;60.72;96286.78;5106082;28;20267;-64
2021/07/15 07:45:54;;;;;;;1.05;0.95;;;;;;;22.58;61.15;96280.78;5099901;28;20371;-63
2021/07/15 07:48:20;;;;;;;0.50;0.50;;;;;;;22.96;60.31;96284.38;5098564;28;20256;-63
2021/07/15 07:50:45;;;;;;;1.67;0.60;;;;;;;23.30;59.62;96294.19;5098784;28;20184;-64
2021/07/15 07:53:10;;;;;;;0.70;0.70;;;;;;;23.40;58.68;96290.41;5103026;28;20184;-63
2021/07/15 07:55:36;;;;;;;0.60;0.60;;;;;;;23.18;58.70;96297.53;5100453;28;20212;-69
2021/07/15 07:58:02;;;;;;;2.30;0.70;;;;;;;22.93;59.61;96287.69;5101332;28;20188;-64
2021/07/15 08:00:28;;;;;;;0.40;0.40;;;;;;;22.66;60.51;96288.81;5095934;28;20196;-64
2021/07/15 08:02:53;;;;;;;1.17;0.70;;;;;;;22.58;60.65;96294.94;5102020;28;20368;-64
2021/07/15 08:05:22;;;;;;;0.60;0.60;;;;;;;22.57;59.84;96295.25;5084987;28;20207;-64
2021/07/15 08:07:48;;;;;;;1.10;0.52;;;;;;;22.44;59.24;96302.31;5103405;28;20217;-65
2021/07/15 08:10:14;;;;;;;0.77;0.77;;;;;;;21.82;61.90;96309.72;5104116;28;20528;-64
2021/07/15 08:12:40;;;;;;;0.60;0.60;;;;;;;20.86;65.20;96312.19;5091905;28;20185;-62
2021/07/15 08:15:07;;;;;;;0.50;0.50;;;;;;;21.00;65.54;96310.28;5101591;28;20191;-63
2021/07/15 08:17:33;;;;;;;0.50;0.50;;;;;;;21.38;65.08;96311.44;5100602;28;20214;-62
2021/07/15 08:19:58;;;;;;;0.93;0.70;;;;;;;22.38;62.72;96308.91;5093075;28;20181;-62
2021/07/15 08:22:24;;;;;;;1.15;0.70;;;;;;;22.64;61.62;96312.38;5106812;28;20237;-63
2021/07/15 08:24:49;;;;;;;0.60;0.60;;;;;;;23.04;59.61;96307.66;5095527;28;20190;-64
2021/07/15 08:27:14;;;;;;;0.60;0.60;;;;;;;23.39;58.25;96319.06;5102763;28;20184;-64
2021/07/15 08:29:40;;;;;;;0.85;0.70;;;;;;;23.94;56.89;96324.34;5086726;28;20261;-64
2021/07/15 08:32:06;;;;;;;0.68;0.60;;;;;;;23.89;55.92;96321.06;5099051;28;20191;-64
2021/07/15 08:34:31;;;;;;;2.67;0.65;;;;;;;23.23;58.58;96328.69;5109541;28;20592;-63
2021/07/15 08:36:57;;;;;;;0.60;0.60;;;;;;;22.03;60.92;96339.31;5102220;28;20200;-64
2021/07/15 08:39:22;;;;;;;1.15;0.75;;;;;;;20.78;65.11;96336.91;5087090;28;20221;-63
2021/07/15 08:41:49;;;;;;;0.88;0.88;;;;;;;19.95;67.42;96340.84;5064143;28;20193;-62
2021/07/15 08:44:16;;;;;;;0.45;0.45;;;;;;;19.61;68.94;96343.88;5064398;28;20243;-63
2021/07/15 08:46:48;;;;;;;1.05;0.70;;;;;;;19.79;69.31;96337.66;5060242;28;20586;-62
2021/07/15 08:49:18;;;;;;;0.43;0.43;;;;;;;20.41;67.62;96341.47;5063247;28;20266;-62
2021/07/15 08:51:45;;;;;;;0.63;0.63;;;;;;;20.50;67.33;96342.34;5058439;28;20189;-63
2021/07/15 08:54:13;;;;;;;3.38;0.70;;;;;;;20.28;68.03;96348.34;5063486;28;20185;-62
2021/07/15 08:56:42;;;;;;;0.50;0.50;;;;;;;20.05;68.93;96344.06;5068951;28;20660;-66
2021/07/15 08:59:12;;;;;;;0.60;0.60;;;;;;;19.89;69.33;96348.13;5065156;28;20190;-61
2021/07/15 09:01:39;;;;;;;0.50;0.50;;;;;;;19.51;70.64;96350.94;5068332;28;20181;-65
2021/07/15 09:04:05;;;;;;;0.50;0.50;;;;;;;19.48;71.08;96353.41;5062773;28;20186;-62
2021/07/15 09:06:31;;;;;;;0.63;0.50;;;;;;;19.37;71.69;96355.44;5058474;28;20707;-62
2021/07/15 09:08:57;;;;;;;1.75;0.63;;;;;;;19.47;71.53;96354.50;5064099;28;20242;-62
2021/07/15 09:11:23;;;;;;;0.85;0.70;;;;;;;19.68;70.96;96347.72;5068170;28;20189;-62
2021/07/15 09:13:49;;;;;;;0.60;0.60;;;;;;;19.63;71.93;96358.44;5057230;28;20251;-62
2021/07/15 09:16:16;;;;;;;0.65;0.65;;;;;;;19.34;72.07;96357.88;5062043;28;20202;-61
2021/07/15 09:18:53;;;;;;;0.93;0.70;;;;;;;19.18;73.51;96364.53;5061148;28;20242;-62
2021/07/15 09:21:27;;;;;;;0.85;0.82;;;;;;;19.04;73.95;96361.84;5073694;28;20216;-61
2021/07/15 09:23:53;;;;;;;0.90;0.90;;;;;;;19.52;71.21;96371.13;5063039;28;20212;-62
2021/07/15 09:26:19;;;;;;;1.27;0.80;;;;;;;20.02;69.94;96370.47;5070030;28;20610;-61
2021/07/15 09:28:44;;;;;;;2.17;0.70;;;;;;;20.33;68.32;96366.16;5070807;28;20601;-62
2021/07/15 09:31:18;;;;;;;0.73;0.73;;;;;;;20.74;67.16;96364.16;5070354;28;20191;-63
2021/07/15 09:33:45;;;;;;;0.60;0.60;;;;;;;21.25;66.23;96365.63;5069210;28;20638;-63
2021/07/15 09:36:13;;;;;;;1.27;0.80;;;;;;;22.37;63.44;96371.44;5049630;28;20280;-62
2021/07/15 09:38:40;;;;;;;1.13;0.77;;;;;;;23.18;60.11;96364.38;5065881;28;20196;-67
2021/07/15 09:41:05;;;;;;;0.60;0.60;;;;;;;23.83;57.18;96365.97;5092176;28;20311;-62
2021/07/15 09:43:37;;;;;;;0.77;0.75;;;;;;;23.70;57.36;96363.50;5093784;28;20271;-63
2021/07/15 09:46:11;;;;;;;2.70;1.08;;;;;;;23.93;56.31;96372.84;5092868;28;20264;-63
2021/07/15 09:48:38;;;;;;;0.98;0.98;;;;;;;23.20;57.80;96364.06;5093532;28;20555;-67
2021/07/15 09:51:08;;;;;;;1.00;1.00;;;;;;;22.68;59.17;96366.75;5093309;28;20275;-62
2021/07/15 09:53:35;;;;;;;1.15;1.10;;;;;;;22.38;59.81;96373.00;5094135;28;20184;-62
2021/07/15 09:56:02;;;;;;;0.70;0.70;;;;;;;21.71;62.09;96378.59;5092766;28;20239;-62
2021/07/15 09:58:38;;;;;;;1.13;1.02;;;;;;;21.06;67.37;96373.03;5093388;28;20191;-63
2021/07/15 10:01:10;;;;;;;1.77;0.98;;;;;;;19.77;71.94;96375.22;5092604;28;20187;-62
2021/07/15 10:03:38;;;;;;;0.95;0.75;;;;;;;19.60;77.06;96379.53;5091378;28;20181;-62
2021/07/15 10:06:04;;;;;;;0.60;0.60;;;;;;;19.79;80.59;96382.88;5075488;28;20216;-63
2021/07/15 10:08:32;;;;;;;0.60;0.60;;;;;;;19.88;80.81;96375.81;5092431;28;20192;-62
2021/07/15 10:11:18;;;;;;;1.27;0.63;;;;;;;20.41;78.84;96378.75;5090620;28;20797;-62
2021/07/15 10:13:46;;;;;;;1.13;0.70;;;;;;;20.90;76.62;96379.81;5092131;28;20181;-62
2021/07/15 10:16:12;;;;;;;2.50;1.17;;;;;;;21.16;73.87;96383.47;5092192;28;20228;-62
2021/07/15 10:18:45;;;;;;;1.00;1.00;;;;;;;21.35;73.84;96378.72;5091553;28;20262;-67
2021/07/15 10:21:13;;;;;;;1.25;1.15;;;;;;;21.30;71.72;96383.38;5059783;28;20176;-62
2021/07/15 10:23:44;;;;;;;2.67;1.15;;;;;;;21.54;70.64;96381.16;5092181;28;20238;-66
2021/07/15 10:26:12;;;;;;;1.13;1.10;;;;;;;21.57;71.71;96386.66;5092041;28;20212;-61
2021/07/15 10:28:42;;;;;;;3.08;1.08;;;;;;;21.73;69.74;96388.97;5092752;28;20722;-67
2021/07/15 10:31:08;;;;;;;1.20;1.20;;;;;;;21.85;71.92;96384.59;5092008;28;20207;-62
2021/07/15 10:33:34;;;;;;;1.00;1.00;;;;;;;21.51;71.05;96384.47;5092509;28;20200;-63
2021/07/15 10:36:03;;;;;;;0.80;0.80;;;;;;;21.08;71.49;96384.94;5091265;28;20207;-62
2021/07/15 10:38:30;;;;;;;1.00;1.00;;;;;;;21.45;71.53;96383.81;5089577;28;20188;-63
2021/07/15 10:40:57;;;;;;;0.80;0.80;;;;;;;21.78;69.82;96389.63;5091217;28;20745;-62
2021/07/15 10:43:23;;;;;;;0.90;0.90;;;;;;;22.89;66.65;96382.22;5091725;28;20556;-63
2021/07/15 10:45:48;;;;;;;0.98;0.98;;;;;;;23.10;61.36;96377.78;5091249;28;20181;-62
2021/07/15 10:48:15;;;;;;;1.10;1.10;;;;;;;23.78;62.04;96381.44;5092089;28;20180;-62
2021/07/15 10:50:41;;;;;;;0.77;0.77;;;;;;;24.37;59.63;96384.94;5091330;28;20207;-67
2021/07/15 10:53:08;;;;;;;0.90;0.90;;;;;;;23.95;57.77;96381.38;5091746;28;20281;-62
2021/07/15 10:55:34;;;;;;;1.33;1.23;;;;;;;23.47;60.28;96389.69;5091805;28;20195;-62
2021/07/15 10:58:00;;;;;;;1.30;1.10;;;;;;;23.01;62.16;96385.81;5090182;28;20287;-62
2021/07/15 11:00:29;;;;;;;3.88;1.60;;;;;;;22.60;64.08;96393.47;5092240;28;20645;-62
2021/07/15 11:03:08;;;;;;;1.13;1.13;;;;;;;22.69;63.71;96395.03;5091351;28;20176;-63
2021/07/15 11:05:43;;;;;;;1.20;1.20;;;;;;;23.01;63.14;96391.16;5076145;28;20184;-62
2021/07/15 11:08:09;;;;;;;1.25;1.20;;;;;;;23.53;61.38;96391.88;5091134;28;20172;-64
2021/07/15 11:10:34;;;;;;;1.10;1.10;;;;;;;24.10;59.50;96391.53;5091704;28;20538;-62
2021/07/15 11:13:06;;;;;;;1.30;1.30;;;;;;;23.58;60.41;96393.59;5090739;28;20183;-62
2021/07/15 11:15:55;;;;;;;1.17;1.17;;;;;;;23.68;60.63;96401.31;5091478;28;20176;-64
2021/07/15 11:19:01;;;;;;;1.00;1.00;;;;;;;23.99;58.94;96401.03;5090417;28;20181;-64
2021/07/15 11:21:26;;;;;;;0.90;0.90;;;;;;;24.31;57.50;96400.41;5080887;28;20181;-64
2021/07/15 11:24:12;;;;;;;0.80;0.80;;;;;;;25.10;55.33;96398.78;5090858;28;20601;-63
2021/07/15 11:26:41;;;;;;;0.80;0.80;;;;;;;24.79;55.78;96402.66;5091170;28;20188;-68
2021/07/15 11:29:10;;;;;;;0.80;0.80;;;;;;;24.95;55.57;96396.72;5091474;28;20660;-63
2021/07/15 11:31:46;;;;;;;0.68;0.68;;;;;;;24.85;55.34;96397.88;5091545;28;20187;-63
2021/07/15 11:34:35;;;;;;;0.85;0.85;;;;;;;25.30;54.62;96387.22;5091215;28;20560;-63
2021/07/15 11:37:25;;;;;;;2.00;1.10;;;;;;;24.67;54.74;96393.75;5083381;28;20612;-64